sensor_id;sensor_type;location;lat;lon;timestamp;temperature;humidity
25128;DHT22;13107;51.304;6.866;2022-11-15T00:01:09;10.20;99.90
25128;DHT22;13107;51.304;6.866;2022-11-15T00:05:11;10.20;99.90
25128;DHT22;13107;51.304;6.866;2022-11-15T00:09:12;10.20;99.90
25128;DHT22;13107;51.304;6.866;2022-11-15T00:13:14;10.30;99.90
25128;DHT22;13107;51.304;6.866;2022-11-15T00:17:16;10.50;99.90
25128;DHT22;13107;51.304;6.866;2022-11-15T00:21:18;10.60;99.90
25128;DHT22;13107;51.304;6.866;2022-11-15T00:25:19;10.50;99.90
25128;DHT22;13107;51.304;6.866;2022-11-15T00:29:21;10.60;99.90
25128;DHT22;13107;51.304;6.866;2022-11-15T00:33:23;10.70;99.90
25128;DHT22;13107;51.304;6.866;2022-11-15T00:37:24;10.80;99.90
25128;DHT22;13107;51.304;6.866;2022-11-15T00:41:26;10.70;99.90
25128;DHT22;13107;51.304;6.866;2022-11-15T00:45:28;10.80;99.90
25128;DHT22;13107;51.304;6.866;2022-11-15T00:49:29;10.80;99.90
25128;DHT22;13107;51.304;6.866;2022-11-15T00:53:31;10.90;99.90
25128;DHT22;13107;51.304;6.866;2022-11-15T00:57:33;10.90;99.90
25128;DHT22;13107;51.304;6.866;2022-11-15T01:01:35;11.10;99.90
25128;DHT22;13107;51.304;6.866;2022-11-15T01:05:39;11.10;99.90
25128;DHT22;13107;51.304;6.866;2022-11-15T01:09:41;11.10;99.90
25128;DHT22;13107;51.304;6.866;2022-11-15T01:13:42;11.10;99.90
25128;DHT22;13107;51.304;6.866;2022-11-15T01:17:44;11.10;99.90
25128;DHT22;13107;51.304;6.866;2022-11-15T01:21:49;11.10;99.90
25128;DHT22;13107;51.304;6.866;2022-11-15T01:25:50;11.30;99.90
25128;DHT22;13107;51.304;6.866;2022-11-15T01:29:52;11.20;99.90
25128;DHT22;13107;51.304;6.866;2022-11-15T01:33:53;11.20;99.90
25128;DHT22;13107;51.304;6.866;2022-11-15T01:37:55;11.20;99.90
25128;DHT22;13107;51.304;6.866;2022-11-15T01:41:57;11.30;99.90
25128;DHT22;13107;51.304;6.866;2022-11-15T01:50:27;11.30;99.90
25128;DHT22;13107;51.304;6.866;2022-11-15T01:54:30;11.30;99.90
25128;DHT22;13107;51.304;6.866;2022-11-15T01:58:32;11.20;99.90
25128;DHT22;13107;51.304;6.866;2022-11-15T02:02:36;11.20;99.90
25128;DHT22;13107;51.304;6.866;2022-11-15T02:06:39;11.30;99.90
25128;DHT22;13107;51.304;6.866;2022-11-15T02:10:41;11.40;99.90
25128;DHT22;13107;51.304;6.866;2022-11-15T02:14:45;11.40;99.90
25128;DHT22;13107;51.304;6.866;2022-11-15T02:24:07;11.50;99.90
25128;DHT22;13107;51.304;6.866;2022-11-15T02:32:22;11.50;99.90
25128;DHT22;13107;51.304;6.866;2022-11-15T02:36:43;11.50;99.90
25128;DHT22;13107;51.304;6.866;2022-11-15T02:45:05;11.50;99.90
25128;DHT22;13107;51.304;6.866;2022-11-15T02:49:11;11.50;99.90
25128;DHT22;13107;51.304;6.866;2022-11-15T02:53:14;11.50;99.90
25128;DHT22;13107;51.304;6.866;2022-11-15T02:57:19;11.60;99.90
25128;DHT22;13107;51.304;6.866;2022-11-15T03:01:38;11.60;99.90
25128;DHT22;13107;51.304;6.866;2022-11-15T03:06:35;11.70;99.90
25128;DHT22;13107;51.304;6.866;2022-11-15T03:10:14;11.60;99.90
25128;DHT22;13107;51.304;6.866;2022-11-15T03:14:33;11.60;99.90
25128;DHT22;13107;51.304;6.866;2022-11-15T03:18:40;11.70;99.90
25128;DHT22;13107;51.304;6.866;2022-11-15T03:22:44;11.70;99.90
25128;DHT22;13107;51.304;6.866;2022-11-15T03:26:48;11.70;99.90
25128;DHT22;13107;51.304;6.866;2022-11-15T03:30:52;11.80;99.90
25128;DHT22;13107;51.304;6.866;2022-11-15T03:35:00;11.80;99.90
25128;DHT22;13107;51.304;6.866;2022-11-15T03:39:06;11.70;99.90
25128;DHT22;13107;51.304;6.866;2022-11-15T03:47:32;11.70;99.90
25128;DHT22;13107;51.304;6.866;2022-11-15T03:51:36;11.70;99.90
25128;DHT22;13107;51.304;6.866;2022-11-15T03:55:38;11.70;99.90
25128;DHT22;13107;51.304;6.866;2022-11-15T03:59:39;11.70;99.90
25128;DHT22;13107;51.304;6.866;2022-11-15T04:03:41;11.80;99.90
25128;DHT22;13107;51.304;6.866;2022-11-15T04:07:43;11.80;99.90
25128;DHT22;13107;51.304;6.866;2022-11-15T04:11:44;11.90;99.90
25128;DHT22;13107;51.304;6.866;2022-11-15T04:15:46;11.90;99.90
25128;DHT22;13107;51.304;6.866;2022-11-15T04:19:48;11.90;99.90
25128;DHT22;13107;51.304;6.866;2022-11-15T04:24:08;11.90;99.90
25128;DHT22;13107;51.304;6.866;2022-11-15T04:28:16;12.00;99.90
25128;DHT22;13107;51.304;6.866;2022-11-15T04:32:18;12.00;99.90
25128;DHT22;13107;51.304;6.866;2022-11-15T04:36:20;11.90;99.90
25128;DHT22;13107;51.304;6.866;2022-11-15T04:40:40;11.90;99.90
25128;DHT22;13107;51.304;6.866;2022-11-15T04:44:42;11.90;99.90
25128;DHT22;13107;51.304;6.866;2022-11-15T04:48:43;11.90;99.90
25128;DHT22;13107;51.304;6.866;2022-11-15T04:52:53;11.80;99.90
25128;DHT22;13107;51.304;6.866;2022-11-15T04:56:54;11.90;99.90
25128;DHT22;13107;51.304;6.866;2022-11-15T05:00:56;11.90;99.90
25128;DHT22;13107;51.304;6.866;2022-11-15T05:04:58;11.80;99.90
25128;DHT22;13107;51.304;6.866;2022-11-15T05:08:59;11.70;99.90
25128;DHT22;13107;51.304;6.866;2022-11-15T05:13:01;11.70;99.90
25128;DHT22;13107;51.304;6.866;2022-11-15T05:17:03;11.80;99.90
25128;DHT22;13107;51.304;6.866;2022-11-15T05:21:10;11.60;99.90
25128;DHT22;13107;51.304;6.866;2022-11-15T05:25:12;11.60;99.90
25128;DHT22;13107;51.304;6.866;2022-11-15T05:29:14;11.60;99.90
25128;DHT22;13107;51.304;6.866;2022-11-15T05:33:15;11.60;99.90
25128;DHT22;13107;51.304;6.866;2022-11-15T05:37:17;11.50;99.90
25128;DHT22;13107;51.304;6.866;2022-11-15T05:41:22;11.60;99.90
25128;DHT22;13107;51.304;6.866;2022-11-15T05:45:26;11.60;99.90
25128;DHT22;13107;51.304;6.866;2022-11-15T05:49:31;11.50;99.90
25128;DHT22;13107;51.304;6.866;2022-11-15T05:53:33;11.50;99.90
25128;DHT22;13107;51.304;6.866;2022-11-15T05:57:36;11.50;99.90
25128;DHT22;13107;51.304;6.866;2022-11-15T06:01:38;11.50;99.90
25128;DHT22;13107;51.304;6.866;2022-11-15T06:05:41;11.50;99.90
25128;DHT22;13107;51.304;6.866;2022-11-15T06:09:42;11.50;99.90
25128;DHT22;13107;51.304;6.866;2022-11-15T06:13:44;11.50;99.90
25128;DHT22;13107;51.304;6.866;2022-11-15T06:17:46;11.60;99.90
25128;DHT22;13107;51.304;6.866;2022-11-15T06:21:47;11.70;99.90
25128;DHT22;13107;51.304;6.866;2022-11-15T06:25:49;11.80;99.90
25128;DHT22;13107;51.304;6.866;2022-11-15T06:29:51;11.80;99.90
25128;DHT22;13107;51.304;6.866;2022-11-15T06:33:52;11.70;99.90
25128;DHT22;13107;51.304;6.866;2022-11-15T06:37:54;11.60;99.90
25128;DHT22;13107;51.304;6.866;2022-11-15T06:41:56;11.60;99.90
25128;DHT22;13107;51.304;6.866;2022-11-15T06:45:58;11.70;99.90
25128;DHT22;13107;51.304;6.866;2022-11-15T06:50:01;11.60;99.90
25128;DHT22;13107;51.304;6.866;2022-11-15T06:54:02;11.50;99.90
25128;DHT22;13107;51.304;6.866;2022-11-15T06:58:04;11.60;99.90
25128;DHT22;13107;51.304;6.866;2022-11-15T07:02:06;11.70;99.90
25128;DHT22;13107;51.304;6.866;2022-11-15T07:06:08;11.60;99.90
25128;DHT22;13107;51.304;6.866;2022-11-15T07:10:10;11.70;99.90
25128;DHT22;13107;51.304;6.866;2022-11-15T07:14:12;11.80;99.90
25128;DHT22;13107;51.304;6.866;2022-11-15T07:18:14;11.80;99.90
25128;DHT22;13107;51.304;6.866;2022-11-15T07:22:16;11.70;99.90
25128;DHT22;13107;51.304;6.866;2022-11-15T07:26:17;11.70;99.90
25128;DHT22;13107;51.304;6.866;2022-11-15T07:30:19;11.80;99.90
25128;DHT22;13107;51.304;6.866;2022-11-15T07:34:21;11.70;99.90
25128;DHT22;13107;51.304;6.866;2022-11-15T07:38:23;11.80;99.90
25128;DHT22;13107;51.304;6.866;2022-11-15T07:42:25;11.80;99.90
25128;DHT22;13107;51.304;6.866;2022-11-15T07:46:45;11.80;99.90
25128;DHT22;13107;51.304;6.866;2022-11-15T07:50:47;11.80;99.90
25128;DHT22;13107;51.304;6.866;2022-11-15T07:54:48;11.80;99.90
25128;DHT22;13107;51.304;6.866;2022-11-15T07:58:50;11.80;99.90
25128;DHT22;13107;51.304;6.866;2022-11-15T08:02:52;11.80;99.90
25128;DHT22;13107;51.304;6.866;2022-11-15T08:06:54;11.70;99.90
25128;DHT22;13107;51.304;6.866;2022-11-15T08:10:57;11.80;99.90
25128;DHT22;13107;51.304;6.866;2022-11-15T08:14:59;11.90;99.90
25128;DHT22;13107;51.304;6.866;2022-11-15T08:19:01;11.90;99.90
25128;DHT22;13107;51.304;6.866;2022-11-15T08:23:03;12.10;99.90
25128;DHT22;13107;51.304;6.866;2022-11-15T08:27:06;12.20;99.90
25128;DHT22;13107;51.304;6.866;2022-11-15T08:31:18;12.20;99.90
25128;DHT22;13107;51.304;6.866;2022-11-15T08:35:20;12.30;99.90
25128;DHT22;13107;51.304;6.866;2022-11-15T08:39:29;12.30;99.90
25128;DHT22;13107;51.304;6.866;2022-11-15T08:43:31;12.30;99.90
25128;DHT22;13107;51.304;6.866;2022-11-15T08:47:33;12.30;99.90
25128;DHT22;13107;51.304;6.866;2022-11-15T08:51:35;12.30;99.90
25128;DHT22;13107;51.304;6.866;2022-11-15T08:55:38;12.40;99.90
25128;DHT22;13107;51.304;6.866;2022-11-15T08:59:40;12.40;99.90
25128;DHT22;13107;51.304;6.866;2022-11-15T09:03:41;12.30;99.90
25128;DHT22;13107;51.304;6.866;2022-11-15T09:07:43;12.30;99.90
25128;DHT22;13107;51.304;6.866;2022-11-15T09:11:45;12.20;99.90
25128;DHT22;13107;51.304;6.866;2022-11-15T09:15:48;12.20;99.90
25128;DHT22;13107;51.304;6.866;2022-11-15T09:19:49;12.10;99.90
25128;DHT22;13107;51.304;6.866;2022-11-15T09:23:51;12.20;99.90
25128;DHT22;13107;51.304;6.866;2022-11-15T09:27:53;12.30;99.90
25128;DHT22;13107;51.304;6.866;2022-11-15T09:31:55;12.20;99.90
25128;DHT22;13107;51.304;6.866;2022-11-15T09:36:05;12.30;99.90
25128;DHT22;13107;51.304;6.866;2022-11-15T09:40:17;12.30;99.90
25128;DHT22;13107;51.304;6.866;2022-11-15T09:49:01;12.30;99.90
25128;DHT22;13107;51.304;6.866;2022-11-15T09:53:03;12.40;99.90
25128;DHT22;13107;51.304;6.866;2022-11-15T09:57:15;12.40;99.90
25128;DHT22;13107;51.304;6.866;2022-11-15T10:06:02;12.30;99.90
25128;DHT22;13107;51.304;6.866;2022-11-15T10:10:27;12.40;99.90
25128;DHT22;13107;51.304;6.866;2022-11-15T10:14:31;12.50;99.90
25128;DHT22;13107;51.304;6.866;2022-11-15T10:18:36;12.50;99.90
25128;DHT22;13107;51.304;6.866;2022-11-15T10:22:51;12.50;99.90
25128;DHT22;13107;51.304;6.866;2022-11-15T10:26:55;12.50;99.90
25128;DHT22;13107;51.304;6.866;2022-11-15T10:30:59;12.60;99.90
25128;DHT22;13107;51.304;6.866;2022-11-15T10:35:17;12.60;99.90
25128;DHT22;13107;51.304;6.866;2022-11-15T10:39:19;12.60;99.90
25128;DHT22;13107;51.304;6.866;2022-11-15T10:43:21;12.60;99.90
25128;DHT22;13107;51.304;6.866;2022-11-15T10:47:31;12.50;99.90
25128;DHT22;13107;51.304;6.866;2022-11-15T10:51:49;12.70;99.90
25128;DHT22;13107;51.304;6.866;2022-11-15T10:55:53;12.70;99.90
25128;DHT22;13107;51.304;6.866;2022-11-15T11:00:44;12.80;99.90
25128;DHT22;13107;51.304;6.866;2022-11-15T11:04:20;12.90;99.90
25128;DHT22;13107;51.304;6.866;2022-11-15T11:08:23;12.80;99.90
25128;DHT22;13107;51.304;6.866;2022-11-15T11:12:31;12.80;99.90
25128;DHT22;13107;51.304;6.866;2022-11-15T11:16:42;12.80;99.90
25128;DHT22;13107;51.304;6.866;2022-11-15T11:20:50;12.80;99.90
25128;DHT22;13107;51.304;6.866;2022-11-15T11:25:03;12.80;99.90
25128;DHT22;13107;51.304;6.866;2022-11-15T11:33:33;13.00;99.90
25128;DHT22;13107;51.304;6.866;2022-11-15T11:50:37;13.10;99.90
25128;DHT22;13107;51.304;6.866;2022-11-15T12:03:40;13.20;99.90
25128;DHT22;13107;51.304;6.866;2022-11-15T12:07:46;13.30;99.90
25128;DHT22;13107;51.304;6.866;2022-11-15T12:16:19;13.30;99.90
25128;DHT22;13107;51.304;6.866;2022-11-15T12:20:27;13.30;99.90
25128;DHT22;13107;51.304;6.866;2022-11-15T12:24:39;13.40;99.90
25128;DHT22;13107;51.304;6.866;2022-11-15T12:28:56;13.40;99.90
25128;DHT22;13107;51.304;6.866;2022-11-15T12:33:32;13.40;99.90
25128;DHT22;13107;51.304;6.866;2022-11-15T12:46:04;13.30;99.90
25128;DHT22;13107;51.304;6.866;2022-11-15T12:50:12;13.40;99.90
25128;DHT22;13107;51.304;6.866;2022-11-15T12:58:44;13.50;99.90
25128;DHT22;13107;51.304;6.866;2022-11-15T13:02:49;13.40;99.90
25128;DHT22;13107;51.304;6.866;2022-11-15T13:07:03;13.50;99.90
25128;DHT22;13107;51.304;6.866;2022-11-15T13:11:42;13.70;99.90
25128;DHT22;13107;51.304;6.866;2022-11-15T13:15:59;13.60;99.90
25128;DHT22;13107;51.304;6.866;2022-11-15T13:24:13;14.00;99.90
25128;DHT22;13107;51.304;6.866;2022-11-15T13:32:17;14.10;99.90
25128;DHT22;13107;51.304;6.866;2022-11-15T13:36:22;14.10;99.90
25128;DHT22;13107;51.304;6.866;2022-11-15T13:40:28;14.00;99.90
25128;DHT22;13107;51.304;6.866;2022-11-15T13:44:33;14.00;99.90
25128;DHT22;13107;51.304;6.866;2022-11-15T13:48:35;14.20;99.90
25128;DHT22;13107;51.304;6.866;2022-11-15T13:52:38;14.10;99.90
25128;DHT22;13107;51.304;6.866;2022-11-15T13:56:52;14.10;99.90
25128;DHT22;13107;51.304;6.866;2022-11-15T14:01:04;14.10;99.90
25128;DHT22;13107;51.304;6.866;2022-11-15T14:05:18;14.10;99.90
25128;DHT22;13107;51.304;6.866;2022-11-15T14:09:39;14.20;99.90
25128;DHT22;13107;51.304;6.866;2022-11-15T14:23:03;13.80;99.90
25128;DHT22;13107;51.304;6.866;2022-11-15T14:27:24;13.60;99.90
25128;DHT22;13107;51.304;6.866;2022-11-15T14:31:26;13.50;99.90
25128;DHT22;13107;51.304;6.866;2022-11-15T14:35:28;13.60;99.90
25128;DHT22;13107;51.304;6.866;2022-11-15T14:39:30;13.60;99.90
25128;DHT22;13107;51.304;6.866;2022-11-15T14:43:31;13.50;99.90
25128;DHT22;13107;51.304;6.866;2022-11-15T14:47:33;13.50;99.90
25128;DHT22;13107;51.304;6.866;2022-11-15T14:51:35;13.40;99.90
25128;DHT22;13107;51.304;6.866;2022-11-15T14:55:37;13.40;99.90
25128;DHT22;13107;51.304;6.866;2022-11-15T14:59:38;13.40;99.90
25128;DHT22;13107;51.304;6.866;2022-11-15T15:03:40;13.30;99.90
25128;DHT22;13107;51.304;6.866;2022-11-15T15:07:42;13.30;99.90
25128;DHT22;13107;51.304;6.866;2022-11-15T15:11:44;13.20;99.90
25128;DHT22;13107;51.304;6.866;2022-11-15T15:15:47;13.20;99.90
25128;DHT22;13107;51.304;6.866;2022-11-15T15:19:49;13.10;99.90
25128;DHT22;13107;51.304;6.866;2022-11-15T15:23:51;13.00;99.90
25128;DHT22;13107;51.304;6.866;2022-11-15T15:27:53;13.00;99.90
25128;DHT22;13107;51.304;6.866;2022-11-15T15:31:55;12.90;99.90
25128;DHT22;13107;51.304;6.866;2022-11-15T15:35:57;13.00;99.90
25128;DHT22;13107;51.304;6.866;2022-11-15T15:39:58;12.90;99.90
25128;DHT22;13107;51.304;6.866;2022-11-15T15:44:00;12.80;99.90
25128;DHT22;13107;51.304;6.866;2022-11-15T15:48:03;12.80;99.90
25128;DHT22;13107;51.304;6.866;2022-11-15T15:52:04;12.90;99.90
25128;DHT22;13107;51.304;6.866;2022-11-15T15:56:06;12.70;99.90
25128;DHT22;13107;51.304;6.866;2022-11-15T16:00:10;12.70;99.90
25128;DHT22;13107;51.304;6.866;2022-11-15T16:04:12;12.70;99.90
25128;DHT22;13107;51.304;6.866;2022-11-15T16:08:24;12.80;99.90
25128;DHT22;13107;51.304;6.866;2022-11-15T16:12:33;12.70;99.90
25128;DHT22;13107;51.304;6.866;2022-11-15T16:16:35;12.70;99.90
25128;DHT22;13107;51.304;6.866;2022-11-15T16:20:39;12.60;99.90
25128;DHT22;13107;51.304;6.866;2022-11-15T16:24:43;12.60;99.90
25128;DHT22;13107;51.304;6.866;2022-11-15T16:28:45;12.60;99.90
25128;DHT22;13107;51.304;6.866;2022-11-15T16:32:47;12.70;99.90
25128;DHT22;13107;51.304;6.866;2022-11-15T16:36:49;12.60;99.90
25128;DHT22;13107;51.304;6.866;2022-11-15T16:40:51;12.60;99.90
25128;DHT22;13107;51.304;6.866;2022-11-15T16:44:53;12.60;99.90
25128;DHT22;13107;51.304;6.866;2022-11-15T16:48:54;12.60;99.90
25128;DHT22;13107;51.304;6.866;2022-11-15T16:52:57;12.60;99.90
25128;DHT22;13107;51.304;6.866;2022-11-15T16:56:59;12.70;99.90
25128;DHT22;13107;51.304;6.866;2022-11-15T17:01:01;12.70;99.90
25128;DHT22;13107;51.304;6.866;2022-11-15T17:05:03;12.70;99.90
25128;DHT22;13107;51.304;6.866;2022-11-15T17:09:19;12.80;99.90
25128;DHT22;13107;51.304;6.866;2022-11-15T17:13:21;12.80;99.90
25128;DHT22;13107;51.304;6.866;2022-11-15T17:17:23;12.80;99.90
25128;DHT22;13107;51.304;6.866;2022-11-15T17:21:26;12.90;99.90
25128;DHT22;13107;51.304;6.866;2022-11-15T17:25:34;12.80;99.90
25128;DHT22;13107;51.304;6.866;2022-11-15T17:29:35;12.80;99.90
25128;DHT22;13107;51.304;6.866;2022-11-15T17:33:37;12.90;99.90
25128;DHT22;13107;51.304;6.866;2022-11-15T17:37:40;12.90;99.90
25128;DHT22;13107;51.304;6.866;2022-11-15T17:41:42;12.90;99.90
25128;DHT22;13107;51.304;6.866;2022-11-15T17:45:44;12.90;99.90
25128;DHT22;13107;51.304;6.866;2022-11-15T17:49:46;12.90;99.90
25128;DHT22;13107;51.304;6.866;2022-11-15T17:53:47;13.00;99.90
25128;DHT22;13107;51.304;6.866;2022-11-15T17:57:51;13.00;99.90
25128;DHT22;13107;51.304;6.866;2022-11-15T18:01:52;13.00;99.90
25128;DHT22;13107;51.304;6.866;2022-11-15T18:05:54;12.90;99.90
25128;DHT22;13107;51.304;6.866;2022-11-15T18:09:56;12.90;99.90
25128;DHT22;13107;51.304;6.866;2022-11-15T18:14:00;12.90;99.90
25128;DHT22;13107;51.304;6.866;2022-11-15T18:18:02;12.80;99.90
25128;DHT22;13107;51.304;6.866;2022-11-15T18:22:04;12.80;99.90
25128;DHT22;13107;51.304;6.866;2022-11-15T18:26:12;12.70;99.90
25128;DHT22;13107;51.304;6.866;2022-11-15T18:30:14;12.80;99.90
25128;DHT22;13107;51.304;6.866;2022-11-15T18:34:16;12.80;99.90
25128;DHT22;13107;51.304;6.866;2022-11-15T18:38:18;12.70;99.90
25128;DHT22;13107;51.304;6.866;2022-11-15T18:42:19;12.60;99.90
25128;DHT22;13107;51.304;6.866;2022-11-15T18:46:23;12.40;99.90
25128;DHT22;13107;51.304;6.866;2022-11-15T18:50:25;12.40;99.90
25128;DHT22;13107;51.304;6.866;2022-11-15T18:54:27;12.40;99.90
25128;DHT22;13107;51.304;6.866;2022-11-15T18:58:37;12.30;99.90
25128;DHT22;13107;51.304;6.866;2022-11-15T19:02:39;12.10;99.90
25128;DHT22;13107;51.304;6.866;2022-11-15T19:06:42;12.10;99.90
25128;DHT22;13107;51.304;6.866;2022-11-15T19:10:44;12.10;99.90
25128;DHT22;13107;51.304;6.866;2022-11-15T19:14:46;11.90;99.90
25128;DHT22;13107;51.304;6.866;2022-11-15T19:18:47;11.90;99.90
25128;DHT22;13107;51.304;6.866;2022-11-15T19:22:52;11.80;99.90
25128;DHT22;13107;51.304;6.866;2022-11-15T19:26:54;11.80;99.90
25128;DHT22;13107;51.304;6.866;2022-11-15T19:31:12;11.80;99.90
25128;DHT22;13107;51.304;6.866;2022-11-15T19:35:14;11.70;99.90
25128;DHT22;13107;51.304;6.866;2022-11-15T19:39:16;11.60;99.90
25128;DHT22;13107;51.304;6.866;2022-11-15T19:43:18;11.60;99.90
25128;DHT22;13107;51.304;6.866;2022-11-15T19:47:21;11.60;99.90
25128;DHT22;13107;51.304;6.866;2022-11-15T19:51:24;11.50;99.90
25128;DHT22;13107;51.304;6.866;2022-11-15T19:55:26;11.50;99.90
25128;DHT22;13107;51.304;6.866;2022-11-15T19:59:28;11.60;99.90
25128;DHT22;13107;51.304;6.866;2022-11-15T20:03:31;11.50;99.90
25128;DHT22;13107;51.304;6.866;2022-11-15T20:07:33;11.50;99.90
25128;DHT22;13107;51.304;6.866;2022-11-15T20:11:35;11.60;99.90
25128;DHT22;13107;51.304;6.866;2022-11-15T20:15:38;11.50;99.90
25128;DHT22;13107;51.304;6.866;2022-11-15T20:19:40;11.50;99.90
25128;DHT22;13107;51.304;6.866;2022-11-15T20:23:42;11.50;99.90
25128;DHT22;13107;51.304;6.866;2022-11-15T20:27:44;11.60;99.90
25128;DHT22;13107;51.304;6.866;2022-11-15T20:31:46;11.50;99.90
25128;DHT22;13107;51.304;6.866;2022-11-15T20:35:48;11.50;99.90
25128;DHT22;13107;51.304;6.866;2022-11-15T20:39:50;11.50;99.90
25128;DHT22;13107;51.304;6.866;2022-11-15T20:43:52;11.50;99.90
25128;DHT22;13107;51.304;6.866;2022-11-15T20:47:54;11.50;99.90
25128;DHT22;13107;51.304;6.866;2022-11-15T20:51:56;11.50;99.90
25128;DHT22;13107;51.304;6.866;2022-11-15T20:56:07;11.50;99.90
25128;DHT22;13107;51.304;6.866;2022-11-15T21:00:09;11.50;99.90
25128;DHT22;13107;51.304;6.866;2022-11-15T21:04:11;11.40;99.90
25128;DHT22;13107;51.304;6.866;2022-11-15T21:08:13;11.40;99.90
25128;DHT22;13107;51.304;6.866;2022-11-15T21:12:15;11.40;99.90
25128;DHT22;13107;51.304;6.866;2022-11-15T21:16:17;11.40;99.90
25128;DHT22;13107;51.304;6.866;2022-11-15T21:20:19;11.50;99.90
25128;DHT22;13107;51.304;6.866;2022-11-15T21:24:21;11.40;99.90
25128;DHT22;13107;51.304;6.866;2022-11-15T21:28:24;11.40;99.90
25128;DHT22;13107;51.304;6.866;2022-11-15T21:32:25;11.50;99.90
25128;DHT22;13107;51.304;6.866;2022-11-15T21:36:29;11.40;99.90
25128;DHT22;13107;51.304;6.866;2022-11-15T21:40:31;11.40;99.90
25128;DHT22;13107;51.304;6.866;2022-11-15T21:44:33;11.40;99.90
25128;DHT22;13107;51.304;6.866;2022-11-15T21:48:35;11.40;99.90
25128;DHT22;13107;51.304;6.866;2022-11-15T21:52:37;11.30;99.90
25128;DHT22;13107;51.304;6.866;2022-11-15T21:56:39;11.30;99.90
25128;DHT22;13107;51.304;6.866;2022-11-15T22:00:43;11.30;99.90
25128;DHT22;13107;51.304;6.866;2022-11-15T22:05:03;11.30;99.90
25128;DHT22;13107;51.304;6.866;2022-11-15T22:09:06;11.30;99.90
25128;DHT22;13107;51.304;6.866;2022-11-15T22:13:08;11.30;99.90
25128;DHT22;13107;51.304;6.866;2022-11-15T22:17:09;11.20;99.90
25128;DHT22;13107;51.304;6.866;2022-11-15T22:21:13;11.20;99.90
25128;DHT22;13107;51.304;6.866;2022-11-15T22:25:15;11.20;99.90
25128;DHT22;13107;51.304;6.866;2022-11-15T22:29:17;11.20;99.90
25128;DHT22;13107;51.304;6.866;2022-11-15T22:33:20;11.20;99.90
25128;DHT22;13107;51.304;6.866;2022-11-15T22:37:22;11.10;99.90
25128;DHT22;13107;51.304;6.866;2022-11-15T22:41:24;11.20;99.90
25128;DHT22;13107;51.304;6.866;2022-11-15T22:45:26;11.20;99.90
25128;DHT22;13107;51.304;6.866;2022-11-15T22:49:27;11.10;99.90
25128;DHT22;13107;51.304;6.866;2022-11-15T22:53:29;11.20;99.90
25128;DHT22;13107;51.304;6.866;2022-11-15T22:57:31;11.10;99.90
25128;DHT22;13107;51.304;6.866;2022-11-15T23:01:33;11.20;99.90
25128;DHT22;13107;51.304;6.866;2022-11-15T23:05:36;11.20;99.90
25128;DHT22;13107;51.304;6.866;2022-11-15T23:09:38;11.20;99.90
25128;DHT22;13107;51.304;6.866;2022-11-15T23:13:40;11.20;99.90
25128;DHT22;13107;51.304;6.866;2022-11-15T23:17:42;11.20;99.90
25128;DHT22;13107;51.304;6.866;2022-11-15T23:21:45;11.10;99.90
25128;DHT22;13107;51.304;6.866;2022-11-15T23:26:06;11.10;99.90
25128;DHT22;13107;51.304;6.866;2022-11-15T23:30:08;11.20;99.90
25128;DHT22;13107;51.304;6.866;2022-11-15T23:34:30;11.10;99.90
25128;DHT22;13107;51.304;6.866;2022-11-15T23:38:33;11.10;99.90
25128;DHT22;13107;51.304;6.866;2022-11-15T23:42:37;11.20;99.90
25128;DHT22;13107;51.304;6.866;2022-11-15T23:46:39;11.20;99.90
25128;DHT22;13107;51.304;6.866;2022-11-15T23:50:40;11.20;99.90
25128;DHT22;13107;51.304;6.866;2022-11-15T23:54:42;11.10;99.90
25128;DHT22;13107;51.304;6.866;2022-11-15T23:58:45;11.20;99.90
